Terminal Aerodrome Forecast
Issued by NWS Wilmington, OH

Current Version | Previous Version | Graphics & Text | Print | Product List | Glossary On
Versions: 1 2 3 4 5 6 7 8 9 10 11 12 13 14 15 16 17 18 19 20 21 22 23 24 25 26 27 28 29 30
000
FTUS41 KILN 240500 RRA
TAFILN
TAF
KILN 240544Z 2406/2506 16006KT P6SM SCT018 OVC080
      TEMPO 2406/2409 BKN018
     FM241300 12008KT 4SM -SHRA BR OVC018
     FM241700 19011KT 5SM BR VCSH BKN007 OVC012
     FM242000 21017G25KT P6SM -SHRA OVC012
     FM242300 24025G40KT P6SM OVC015
     FM250300 24018G28KT P6SM OVC015=

USA.gov is the U.S. government's official web portal to all federal, state and local government web resources and services.